Sunday, December 17, 2017, 2:38 PM EST
Back to Local

KCKB, Harrison/marion Regional

Location: Bridgeport, WV, United States Lat: 39.3
Local Time: 2:38 PM EST (19:38 GMT) Lon: -80.217
Time Zone: US/Eastern Elev: 1204 ft

Show me the last for .
Show Decoded

2017-12-17 13:53 METAR KCKB 171853Z 00000KT 10SM OVC110 07/M02 A3012 RMK AO2 SLP200 T00721022 =
2017-12-17 12:53 METAR KCKB 171753Z 20005KT 10SM FEW075 OVC110 07/M02 A3016 RMK AO2 RAB29E39
                 SLP214 P0000 60000 T00671017 10067 20017 58033 =
2017-12-17 11:53 METAR KCKB 171653Z 19007KT 10SM OVC110 06/M02 A3019 RMK AO2 SLP227 T00611022 =
2017-12-17 10:53 METAR KCKB 171553Z 19004KT 10SM CLR 06/M02 A3024 RMK AO2 SLP242 T00561022 =
2017-12-17 09:53 METAR KCKB 171453Z 22003KT 10SM CLR 04/M02 A3026 RMK AO2 SLP249 T00441017 53015
                 =
2017-12-17 08:53 METAR KCKB 171353Z 00000KT 10SM CLR 03/M02 A3021 RMK AO2 SLP233 T00331022 =
2017-12-17 07:53 METAR KCKB 171253Z 14003KT 10SM CLR 02/M04 A3021 RMK AO2 SLP235 T00221039 =
2017-12-17 06:53 METAR KCKB 171153Z 00000KT 10SM CLR 02/M04 A3021 RMK AO2 SLP235 T00171039 10033
                 20006 55000 =
2017-12-17 05:53 METAR KCKB 171053Z AUTO 00000KT 10SM CLR 02/M04 A3021 RMK AO2 SLP233 T00221044 =
2017-12-17 04:53 METAR KCKB 170953Z AUTO 00000KT 10SM CLR 03/M04 A3021 RMK AO2 SLP231 T00331039 =
2017-12-17 03:53 METAR KCKB 170853Z 00000KT 10SM CLR 03/M04 A3022 RMK AO2 SLP233 T00281044 50003
                 =
2017-12-17 02:53 METAR KCKB 170753Z 21004KT 10SM CLR 02/M04 A3023 RMK AO2 SLP239 T00221044 =
2017-12-17 01:53 METAR KCKB 170653Z 20004KT 10SM CLR 02/M04 A3022 RMK AO2 SLP236 T00221044 =
2017-12-17 00:53 METAR KCKB 170553Z 20003KT 10SM CLR 02/M04 A3020 RMK AO2 SLP230 T00171044 10050
                 20006 53012 =
2017-12-16 23:53 METAR KCKB 170453Z 00000KT 10SM CLR 02/M04 A3019 RMK AO2 SLP226 T00221044
                 400831011 =
2017-12-16 22:53 METAR KCKB 170353Z 18003KT 10SM CLR 03/M04 A3018 RMK AO2 SLP223 T00331044 =
2017-12-16 21:53 METAR KCKB 170253Z 18003KT 10SM CLR 04/M04 A3017 RMK AO2 SLP220 T00391044 53018
                 =
2017-12-16 20:53 METAR KCKB 170153Z 16003KT 10SM CLR 04/M04 A3014 RMK AO2 SLP212 T00441044 =
2017-12-16 19:53 METAR KCKB 170053Z 17003KT 10SM CLR 04/M04 A3013 RMK AO2 SLP209 T00391044 =
2017-12-16 18:53 METAR KCKB 162353Z 18004KT 10SM CLR 05/M04 A3011 RMK AO2 SLP201 T00501044 10083
                 20033 51019 =
2017-12-16 17:53 METAR KCKB 162253Z 21007KT 10SM CLR 04/M04 A3010 RMK AO2 SLP198 T00441044 =
2017-12-16 16:53 METAR KCKB 162153Z 22008KT 10SM CLR 07/M04 A3007 RMK AO2 SLP185 T00671039 =
2017-12-16 15:53 METAR KCKB 162053Z 22009KT 10SM CLR 08/M04 A3005 RMK AO2 SLP180 T00781039 56009
                 =
2017-12-16 14:53 METAR KCKB 161953Z 24011KT 10SM CLR 08/M04 A3006 RMK AO2 SLP180 T00831039 =

Support USWX by starting your Amazon purchase here.